sensor_id;sensor_type;location;lat;lon;timestamp;P1;durP1;ratioP1;P2;durP2;ratioP2
19291;SDS011;9779;51.756;7.450;2023-08-24T00:00:20;3.73;;;2.70;;
19291;SDS011;9779;51.756;7.450;2023-08-24T00:02:46;9.70;;;3.00;;
19291;SDS011;9779;51.756;7.450;2023-08-24T00:05:12;4.77;;;3.30;;
19291;SDS011;9779;51.756;7.450;2023-08-24T00:07:38;4.17;;;3.10;;
19291;SDS011;9779;51.756;7.450;2023-08-24T00:10:04;4.30;;;2.67;;
19291;SDS011;9779;51.756;7.450;2023-08-24T00:12:30;3.63;;;3.43;;
19291;SDS011;9779;51.756;7.450;2023-08-24T00:14:58;3.90;;;3.57;;
19291;SDS011;9779;51.756;7.450;2023-08-24T00:17:27;3.90;;;3.60;;
19291;SDS011;9779;51.756;7.450;2023-08-24T00:19:53;4.97;;;3.30;;
19291;SDS011;9779;51.756;7.450;2023-08-24T00:22:18;6.17;;;3.10;;
19291;SDS011;9779;51.756;7.450;2023-08-24T00:24:44;5.30;;;2.90;;
19291;SDS011;9779;51.756;7.450;2023-08-24T00:27:10;5.00;;;3.03;;
19291;SDS011;9779;51.756;7.450;2023-08-24T00:29:35;4.07;;;3.77;;
19291;SDS011;9779;51.756;7.450;2023-08-24T00:32:01;6.13;;;3.33;;
19291;SDS011;9779;51.756;7.450;2023-08-24T00:34:26;3.50;;;3.20;;
19291;SDS011;9779;51.756;7.450;2023-08-24T00:36:52;3.57;;;3.17;;
19291;SDS011;9779;51.756;7.450;2023-08-24T00:39:17;3.77;;;3.47;;
19291;SDS011;9779;51.756;7.450;2023-08-24T00:41:43;3.50;;;3.17;;
19291;SDS011;9779;51.756;7.450;2023-08-24T00:44:09;3.10;;;2.43;;
19291;SDS011;9779;51.756;7.450;2023-08-24T00:46:35;6.60;;;2.60;;
19291;SDS011;9779;51.756;7.450;2023-08-24T00:49:01;5.43;;;2.20;;
19291;SDS011;9779;51.756;7.450;2023-08-24T00:51:28;3.00;;;2.77;;
19291;SDS011;9779;51.756;7.450;2023-08-24T00:53:53;2.70;;;1.90;;
19291;SDS011;9779;51.756;7.450;2023-08-24T00:56:19;4.33;;;2.47;;
19291;SDS011;9779;51.756;7.450;2023-08-24T00:58:49;2.53;;;2.30;;
19291;SDS011;9779;51.756;7.450;2023-08-24T01:01:19;3.33;;;2.47;;
19291;SDS011;9779;51.756;7.450;2023-08-24T01:03:45;3.43;;;2.57;;
19291;SDS011;9779;51.756;7.450;2023-08-24T01:06:11;3.50;;;2.93;;
19291;SDS011;9779;51.756;7.450;2023-08-24T01:08:36;3.60;;;2.40;;
19291;SDS011;9779;51.756;7.450;2023-08-24T01:11:12;2.90;;;2.13;;
19291;SDS011;9779;51.756;7.450;2023-08-24T01:16:27;2.40;;;2.10;;
19291;SDS011;9779;51.756;7.450;2023-08-24T01:18:55;7.83;;;2.40;;
19291;SDS011;9779;51.756;7.450;2023-08-24T01:21:22;2.30;;;2.10;;
19291;SDS011;9779;51.756;7.450;2023-08-24T01:23:53;2.73;;;2.40;;
19291;SDS011;9779;51.756;7.450;2023-08-24T01:26:28;2.70;;;2.50;;
19291;SDS011;9779;51.756;7.450;2023-08-24T01:28:54;6.90;;;2.73;;
19291;SDS011;9779;51.756;7.450;2023-08-24T01:31:20;2.40;;;2.30;;
19291;SDS011;9779;51.756;7.450;2023-08-24T01:33:46;2.37;;;2.17;;
19291;SDS011;9779;51.756;7.450;2023-08-24T01:36:13;2.77;;;2.57;;
19291;SDS011;9779;51.756;7.450;2023-08-24T01:38:41;3.13;;;2.93;;
19291;SDS011;9779;51.756;7.450;2023-08-24T01:41:24;2.80;;;2.60;;
19291;SDS011;9779;51.756;7.450;2023-08-24T01:43:53;3.47;;;3.17;;
19291;SDS011;9779;51.756;7.450;2023-08-24T01:46:21;6.30;;;3.10;;
19291;SDS011;9779;51.756;7.450;2023-08-24T01:48:50;3.07;;;2.87;;
19291;SDS011;9779;51.756;7.450;2023-08-24T01:51:17;8.97;;;2.77;;
19291;SDS011;9779;51.756;7.450;2023-08-24T01:53:43;4.07;;;2.73;;
19291;SDS011;9779;51.756;7.450;2023-08-24T01:56:10;7.77;;;2.67;;
19291;SDS011;9779;51.756;7.450;2023-08-24T01:58:36;2.70;;;2.50;;
19291;SDS011;9779;51.756;7.450;2023-08-24T02:01:02;2.73;;;2.57;;
19291;SDS011;9779;51.756;7.450;2023-08-24T02:03:29;2.97;;;2.73;;
19291;SDS011;9779;51.756;7.450;2023-08-24T02:05:55;3.23;;;2.93;;
19291;SDS011;9779;51.756;7.450;2023-08-24T02:08:21;2.90;;;2.70;;
19291;SDS011;9779;51.756;7.450;2023-08-24T02:10:46;4.53;;;2.60;;
19291;SDS011;9779;51.756;7.450;2023-08-24T02:13:12;2.70;;;2.60;;
19291;SDS011;9779;51.756;7.450;2023-08-24T02:15:38;3.83;;;2.73;;
19291;SDS011;9779;51.756;7.450;2023-08-24T02:18:04;3.27;;;3.07;;
19291;SDS011;9779;51.756;7.450;2023-08-24T02:20:34;7.20;;;3.10;;
19291;SDS011;9779;51.756;7.450;2023-08-24T02:23:01;2.87;;;2.47;;
19291;SDS011;9779;51.756;7.450;2023-08-24T02:25:26;3.00;;;2.80;;
19291;SDS011;9779;51.756;7.450;2023-08-24T02:27:53;7.40;;;2.90;;
19291;SDS011;9779;51.756;7.450;2023-08-24T02:30:19;3.23;;;3.00;;
19291;SDS011;9779;51.756;7.450;2023-08-24T02:32:47;3.10;;;2.80;;
19291;SDS011;9779;51.756;7.450;2023-08-24T02:35:13;3.87;;;2.90;;
19291;SDS011;9779;51.756;7.450;2023-08-24T02:37:38;2.67;;;2.47;;
19291;SDS011;9779;51.756;7.450;2023-08-24T02:40:04;3.03;;;2.60;;
19291;SDS011;9779;51.756;7.450;2023-08-24T02:42:34;4.63;;;2.90;;
19291;SDS011;9779;51.756;7.450;2023-08-24T02:45:00;4.87;;;2.67;;
19291;SDS011;9779;51.756;7.450;2023-08-24T02:47:26;3.10;;;2.80;;
19291;SDS011;9779;51.756;7.450;2023-08-24T02:49:51;3.53;;;3.17;;
19291;SDS011;9779;51.756;7.450;2023-08-24T02:52:17;3.27;;;2.80;;
19291;SDS011;9779;51.756;7.450;2023-08-24T02:54:43;2.80;;;2.60;;
19291;SDS011;9779;51.756;7.450;2023-08-24T02:57:08;2.80;;;2.60;;
19291;SDS011;9779;51.756;7.450;2023-08-24T02:59:34;3.37;;;3.17;;
19291;SDS011;9779;51.756;7.450;2023-08-24T03:02:00;3.37;;;3.07;;
19291;SDS011;9779;51.756;7.450;2023-08-24T03:04:25;3.33;;;3.07;;
19291;SDS011;9779;51.756;7.450;2023-08-24T03:06:52;5.80;;;3.50;;
19291;SDS011;9779;51.756;7.450;2023-08-24T03:09:17;3.57;;;3.37;;
19291;SDS011;9779;51.756;7.450;2023-08-24T03:11:43;3.23;;;3.00;;
19291;SDS011;9779;51.756;7.450;2023-08-24T03:14:09;3.43;;;3.23;;
19291;SDS011;9779;51.756;7.450;2023-08-24T03:16:34;3.57;;;3.17;;
19291;SDS011;9779;51.756;7.450;2023-08-24T03:19:02;6.33;;;3.20;;
19291;SDS011;9779;51.756;7.450;2023-08-24T03:21:28;3.53;;;3.33;;
19291;SDS011;9779;51.756;7.450;2023-08-24T03:23:53;7.03;;;3.57;;
19291;SDS011;9779;51.756;7.450;2023-08-24T03:26:19;8.50;;;3.50;;
19291;SDS011;9779;51.756;7.450;2023-08-24T03:28:48;5.07;;;3.43;;
19291;SDS011;9779;51.756;7.450;2023-08-24T03:31:13;4.53;;;4.23;;
19291;SDS011;9779;51.756;7.450;2023-08-24T03:33:39;4.10;;;3.80;;
19291;SDS011;9779;51.756;7.450;2023-08-24T03:36:04;3.40;;;3.20;;
19291;SDS011;9779;51.756;7.450;2023-08-24T03:38:30;3.60;;;3.40;;
19291;SDS011;9779;51.756;7.450;2023-08-24T03:41:00;8.20;;;3.50;;
19291;SDS011;9779;51.756;7.450;2023-08-24T03:43:31;3.87;;;3.67;;
19291;SDS011;9779;51.756;7.450;2023-08-24T03:45:58;4.80;;;3.50;;
19291;SDS011;9779;51.756;7.450;2023-08-24T03:48:24;3.87;;;3.50;;
19291;SDS011;9779;51.756;7.450;2023-08-24T03:50:49;3.80;;;3.50;;
19291;SDS011;9779;51.756;7.450;2023-08-24T03:53:18;4.87;;;3.50;;
19291;SDS011;9779;51.756;7.450;2023-08-24T03:55:46;3.30;;;3.10;;
19291;SDS011;9779;51.756;7.450;2023-08-24T03:58:13;5.30;;;3.70;;
19291;SDS011;9779;51.756;7.450;2023-08-24T04:00:39;3.50;;;3.20;;
19291;SDS011;9779;51.756;7.450;2023-08-24T04:03:05;3.53;;;3.13;;
19291;SDS011;9779;51.756;7.450;2023-08-24T04:05:31;3.93;;;3.57;;
19291;SDS011;9779;51.756;7.450;2023-08-24T04:07:56;3.50;;;2.87;;
19291;SDS011;9779;51.756;7.450;2023-08-24T04:10:22;11.33;;;3.83;;
19291;SDS011;9779;51.756;7.450;2023-08-24T04:12:47;4.07;;;3.60;;
19291;SDS011;9779;51.756;7.450;2023-08-24T04:15:13;3.63;;;3.37;;
19291;SDS011;9779;51.756;7.450;2023-08-24T04:17:39;4.50;;;3.90;;
19291;SDS011;9779;51.756;7.450;2023-08-24T04:20:05;3.97;;;3.67;;
19291;SDS011;9779;51.756;7.450;2023-08-24T04:22:32;4.27;;;3.90;;
19291;SDS011;9779;51.756;7.450;2023-08-24T04:24:58;6.97;;;3.87;;
19291;SDS011;9779;51.756;7.450;2023-08-24T04:27:25;3.83;;;3.53;;
19291;SDS011;9779;51.756;7.450;2023-08-24T04:29:50;3.67;;;3.47;;
19291;SDS011;9779;51.756;7.450;2023-08-24T04:32:16;14.70;;;3.77;;
19291;SDS011;9779;51.756;7.450;2023-08-24T04:34:44;4.13;;;3.50;;
19291;SDS011;9779;51.756;7.450;2023-08-24T04:37:09;8.63;;;4.47;;
19291;SDS011;9779;51.756;7.450;2023-08-24T04:39:41;5.17;;;4.17;;
19291;SDS011;9779;51.756;7.450;2023-08-24T04:42:06;4.93;;;4.53;;
19291;SDS011;9779;51.756;7.450;2023-08-24T04:44:32;4.30;;;4.00;;
19291;SDS011;9779;51.756;7.450;2023-08-24T04:46:58;5.97;;;4.80;;
19291;SDS011;9779;51.756;7.450;2023-08-24T04:49:24;7.67;;;6.00;;
19291;SDS011;9779;51.756;7.450;2023-08-24T04:51:49;6.03;;;5.50;;
19291;SDS011;9779;51.756;7.450;2023-08-24T04:54:15;6.80;;;6.23;;
19291;SDS011;9779;51.756;7.450;2023-08-24T04:56:43;6.43;;;5.93;;
19291;SDS011;9779;51.756;7.450;2023-08-24T04:59:09;9.13;;;5.37;;
19291;SDS011;9779;51.756;7.450;2023-08-24T05:01:35;6.00;;;5.60;;
19291;SDS011;9779;51.756;7.450;2023-08-24T05:04:02;7.17;;;5.80;;
19291;SDS011;9779;51.756;7.450;2023-08-24T05:06:27;6.13;;;5.73;;
19291;SDS011;9779;51.756;7.450;2023-08-24T05:08:55;6.60;;;6.03;;
19291;SDS011;9779;51.756;7.450;2023-08-24T05:11:26;5.87;;;5.47;;
19291;SDS011;9779;51.756;7.450;2023-08-24T05:13:54;6.87;;;6.20;;
19291;SDS011;9779;51.756;7.450;2023-08-24T05:16:20;6.77;;;6.00;;
19291;SDS011;9779;51.756;7.450;2023-08-24T05:18:46;6.40;;;6.00;;
19291;SDS011;9779;51.756;7.450;2023-08-24T05:21:11;6.47;;;6.07;;
19291;SDS011;9779;51.756;7.450;2023-08-24T05:23:37;12.37;;;6.33;;
19291;SDS011;9779;51.756;7.450;2023-08-24T05:26:03;4.83;;;4.50;;
19291;SDS011;9779;51.756;7.450;2023-08-24T05:28:29;5.30;;;4.80;;
19291;SDS011;9779;51.756;7.450;2023-08-24T05:30:55;8.40;;;6.53;;
19291;SDS011;9779;51.756;7.450;2023-08-24T05:33:22;9.90;;;6.03;;
19291;SDS011;9779;51.756;7.450;2023-08-24T05:35:49;13.00;;;6.37;;
19291;SDS011;9779;51.756;7.450;2023-08-24T05:38:16;9.07;;;7.23;;
19291;SDS011;9779;51.756;7.450;2023-08-24T05:40:42;8.67;;;7.87;;
19291;SDS011;9779;51.756;7.450;2023-08-24T05:43:09;9.97;;;7.17;;
19291;SDS011;9779;51.756;7.450;2023-08-24T05:45:35;8.50;;;7.50;;
19291;SDS011;9779;51.756;7.450;2023-08-24T05:48:01;7.90;;;7.30;;
19291;SDS011;9779;51.756;7.450;2023-08-24T05:50:27;8.53;;;7.93;;
19291;SDS011;9779;51.756;7.450;2023-08-24T05:52:53;10.27;;;7.63;;
19291;SDS011;9779;51.756;7.450;2023-08-24T05:55:18;10.63;;;7.83;;
19291;SDS011;9779;51.756;7.450;2023-08-24T05:57:44;8.93;;;8.27;;
19291;SDS011;9779;51.756;7.450;2023-08-24T06:00:10;8.70;;;7.93;;
19291;SDS011;9779;51.756;7.450;2023-08-24T06:02:36;9.00;;;8.10;;
19291;SDS011;9779;51.756;7.450;2023-08-24T06:05:02;9.07;;;8.30;;
19291;SDS011;9779;51.756;7.450;2023-08-24T06:07:31;11.70;;;8.87;;
19291;SDS011;9779;51.756;7.450;2023-08-24T06:09:57;16.63;;;8.03;;
19291;SDS011;9779;51.756;7.450;2023-08-24T06:12:23;11.43;;;8.50;;
19291;SDS011;9779;51.756;7.450;2023-08-24T06:14:49;13.57;;;6.20;;
19291;SDS011;9779;51.756;7.450;2023-08-24T06:17:14;10.67;;;6.23;;
19291;SDS011;9779;51.756;7.450;2023-08-24T06:19:40;7.90;;;7.00;;
19291;SDS011;9779;51.756;7.450;2023-08-24T06:22:06;7.70;;;7.10;;
19291;SDS011;9779;51.756;7.450;2023-08-24T06:24:34;8.43;;;7.20;;
19291;SDS011;9779;51.756;7.450;2023-08-24T06:27:00;8.93;;;7.77;;
19291;SDS011;9779;51.756;7.450;2023-08-24T06:29:27;7.67;;;7.07;;
19291;SDS011;9779;51.756;7.450;2023-08-24T06:31:55;8.33;;;7.83;;
19291;SDS011;9779;51.756;7.450;2023-08-24T06:34:21;8.23;;;7.63;;
19291;SDS011;9779;51.756;7.450;2023-08-24T06:36:49;8.03;;;7.20;;
19291;SDS011;9779;51.756;7.450;2023-08-24T06:39:15;7.37;;;6.67;;
19291;SDS011;9779;51.756;7.450;2023-08-24T06:41:41;7.63;;;6.83;;
19291;SDS011;9779;51.756;7.450;2023-08-24T06:44:07;7.63;;;6.90;;
19291;SDS011;9779;51.756;7.450;2023-08-24T06:46:32;12.50;;;7.43;;
19291;SDS011;9779;51.756;7.450;2023-08-24T06:48:58;11.03;;;8.20;;
19291;SDS011;9779;51.756;7.450;2023-08-24T06:51:24;7.67;;;7.07;;
19291;SDS011;9779;51.756;7.450;2023-08-24T06:53:53;8.20;;;7.50;;
19291;SDS011;9779;51.756;7.450;2023-08-24T06:56:21;10.57;;;8.10;;
19291;SDS011;9779;51.756;7.450;2023-08-24T06:58:47;10.23;;;9.20;;
19291;SDS011;9779;51.756;7.450;2023-08-24T07:01:13;10.10;;;9.10;;
19291;SDS011;9779;51.756;7.450;2023-08-24T07:03:39;10.27;;;9.33;;
19291;SDS011;9779;51.756;7.450;2023-08-24T07:06:05;10.47;;;9.00;;
19291;SDS011;9779;51.756;7.450;2023-08-24T07:08:32;9.73;;;9.00;;
19291;SDS011;9779;51.756;7.450;2023-08-24T07:10:58;9.93;;;9.23;;
19291;SDS011;9779;51.756;7.450;2023-08-24T07:13:24;11.30;;;10.17;;
19291;SDS011;9779;51.756;7.450;2023-08-24T07:15:51;17.17;;;10.67;;
19291;SDS011;9779;51.756;7.450;2023-08-24T07:18:17;11.40;;;10.40;;
19291;SDS011;9779;51.756;7.450;2023-08-24T07:20:42;14.90;;;10.03;;
19291;SDS011;9779;51.756;7.450;2023-08-24T07:23:08;10.67;;;9.93;;
19291;SDS011;9779;51.756;7.450;2023-08-24T07:25:34;12.33;;;7.73;;
19291;SDS011;9779;51.756;7.450;2023-08-24T07:27:59;8.57;;;7.87;;
19291;SDS011;9779;51.756;7.450;2023-08-24T07:30:28;11.50;;;7.80;;
19291;SDS011;9779;51.756;7.450;2023-08-24T07:32:53;10.23;;;8.53;;
19291;SDS011;9779;51.756;7.450;2023-08-24T07:35:19;8.43;;;7.43;;
19291;SDS011;9779;51.756;7.450;2023-08-24T07:37:48;8.13;;;7.33;;
19291;SDS011;9779;51.756;7.450;2023-08-24T07:40:14;7.70;;;6.90;;
19291;SDS011;9779;51.756;7.450;2023-08-24T07:42:58;8.83;;;8.07;;
19291;SDS011;9779;51.756;7.450;2023-08-24T07:45:25;11.60;;;10.43;;
19291;SDS011;9779;51.756;7.450;2023-08-24T07:47:51;11.13;;;10.30;;
19291;SDS011;9779;51.756;7.450;2023-08-24T07:50:17;10.63;;;9.90;;
19291;SDS011;9779;51.756;7.450;2023-08-24T07:52:42;12.00;;;10.93;;
19291;SDS011;9779;51.756;7.450;2023-08-24T07:55:10;12.80;;;11.70;;
19291;SDS011;9779;51.756;7.450;2023-08-24T07:57:39;10.75;;;9.85;;
19291;SDS011;9779;51.756;7.450;2023-08-24T08:00:06;11.43;;;10.15;;
19291;SDS011;9779;51.756;7.450;2023-08-24T08:02:34;11.40;;;10.43;;
19291;SDS011;9779;51.756;7.450;2023-08-24T08:05:02;11.63;;;10.73;;
19291;SDS011;9779;51.756;7.450;2023-08-24T08:07:28;11.20;;;10.10;;
19291;SDS011;9779;51.756;7.450;2023-08-24T08:09:53;11.33;;;10.33;;
19291;SDS011;9779;51.756;7.450;2023-08-24T08:12:19;8.97;;;8.37;;
19291;SDS011;9779;51.756;7.450;2023-08-24T08:14:45;10.68;;;9.88;;
19291;SDS011;9779;51.756;7.450;2023-08-24T08:17:11;9.30;;;8.30;;
19291;SDS011;9779;51.756;7.450;2023-08-24T08:19:36;8.87;;;8.07;;
19291;SDS011;9779;51.756;7.450;2023-08-24T08:22:03;9.38;;;8.43;;
19291;SDS011;9779;51.756;7.450;2023-08-24T08:24:29;8.32;;;7.53;;
19291;SDS011;9779;51.756;7.450;2023-08-24T08:26:54;13.63;;;7.45;;
19291;SDS011;9779;51.756;7.450;2023-08-24T08:29:20;6.90;;;6.27;;
19291;SDS011;9779;51.756;7.450;2023-08-24T08:31:46;11.68;;;7.45;;
19291;SDS011;9779;51.756;7.450;2023-08-24T08:34:11;7.78;;;7.07;;
19291;SDS011;9779;51.756;7.450;2023-08-24T08:36:37;7.90;;;7.00;;
19291;SDS011;9779;51.756;7.450;2023-08-24T08:39:03;14.57;;;7.82;;
19291;SDS011;9779;51.756;7.450;2023-08-24T08:41:32;7.47;;;6.88;;
19291;SDS011;9779;51.756;7.450;2023-08-24T08:44:04;7.03;;;5.78;;
19291;SDS011;9779;51.756;7.450;2023-08-24T08:46:31;7.00;;;5.53;;
19291;SDS011;9779;51.756;7.450;2023-08-24T08:48:58;5.47;;;4.30;;
19291;SDS011;9779;51.756;7.450;2023-08-24T08:51:25;7.07;;;5.32;;
19291;SDS011;9779;51.756;7.450;2023-08-24T08:53:51;8.27;;;4.65;;
19291;SDS011;9779;51.756;7.450;2023-08-24T08:56:18;9.80;;;5.38;;
19291;SDS011;9779;51.756;7.450;2023-08-24T08:58:44;4.65;;;4.25;;
19291;SDS011;9779;51.756;7.450;2023-08-24T09:01:11;4.47;;;4.18;;
19291;SDS011;9779;51.756;7.450;2023-08-24T09:03:37;5.18;;;4.75;;
19291;SDS011;9779;51.756;7.450;2023-08-24T09:06:04;12.18;;;4.53;;
19291;SDS011;9779;51.756;7.450;2023-08-24T09:08:30;5.88;;;3.83;;
19291;SDS011;9779;51.756;7.450;2023-08-24T09:10:58;7.82;;;4.07;;
19291;SDS011;9779;51.756;7.450;2023-08-24T09:13:24;7.85;;;3.95;;
19291;SDS011;9779;51.756;7.450;2023-08-24T09:15:51;5.80;;;3.85;;
19291;SDS011;9779;51.756;7.450;2023-08-24T09:18:20;6.68;;;3.67;;
19291;SDS011;9779;51.756;7.450;2023-08-24T09:20:47;5.03;;;4.20;;
19291;SDS011;9779;51.756;7.450;2023-08-24T09:23:17;3.92;;;3.25;;
19291;SDS011;9779;51.756;7.450;2023-08-24T09:25:46;3.50;;;3.08;;
19291;SDS011;9779;51.756;7.450;2023-08-24T09:28:12;7.50;;;3.35;;
19291;SDS011;9779;51.756;7.450;2023-08-24T09:30:38;3.60;;;3.30;;
19291;SDS011;9779;51.756;7.450;2023-08-24T09:33:06;4.80;;;3.20;;
19291;SDS011;9779;51.756;7.450;2023-08-24T09:35:35;4.05;;;3.58;;
19291;SDS011;9779;51.756;7.450;2023-08-24T09:38:35;9.88;;;3.05;;
19291;SDS011;9779;51.756;7.450;2023-08-24T09:40:54;8.88;;;3.58;;
19291;SDS011;9779;51.756;7.450;2023-08-24T09:43:21;3.97;;;3.57;;
19291;SDS011;9779;51.756;7.450;2023-08-24T09:45:48;4.60;;;3.47;;
19291;SDS011;9779;51.756;7.450;2023-08-24T09:48:17;7.43;;;3.15;;
19291;SDS011;9779;51.756;7.450;2023-08-24T09:50:46;9.38;;;5.50;;
19291;SDS011;9779;51.756;7.450;2023-08-24T09:53:17;7.55;;;3.38;;
19291;SDS011;9779;51.756;7.450;2023-08-24T09:56:08;3.58;;;2.72;;
19291;SDS011;9779;51.756;7.450;2023-08-24T09:58:33;3.00;;;2.78;;
19291;SDS011;9779;51.756;7.450;2023-08-24T10:00:59;4.38;;;2.53;;
19291;SDS011;9779;51.756;7.450;2023-08-24T10:03:26;5.45;;;2.50;;
19291;SDS011;9779;51.756;7.450;2023-08-24T10:05:55;3.17;;;2.70;;
19291;SDS011;9779;51.756;7.450;2023-08-24T10:08:26;7.13;;;2.85;;
19291;SDS011;9779;51.756;7.450;2023-08-24T10:10:56;3.40;;;2.60;;
19291;SDS011;9779;51.756;7.450;2023-08-24T10:13:34;4.18;;;2.80;;
19291;SDS011;9779;51.756;7.450;2023-08-24T10:16:06;4.32;;;2.42;;
19291;SDS011;9779;51.756;7.450;2023-08-24T10:18:33;10.55;;;2.85;;
19291;SDS011;9779;51.756;7.450;2023-08-24T10:20:59;3.92;;;2.22;;
19291;SDS011;9779;51.756;7.450;2023-08-24T10:26:17;3.72;;;2.33;;
19291;SDS011;9779;51.756;7.450;2023-08-24T10:28:43;4.50;;;2.53;;
19291;SDS011;9779;51.756;7.450;2023-08-24T10:31:10;5.30;;;2.30;;
19291;SDS011;9779;51.756;7.450;2023-08-24T10:33:36;2.88;;;2.38;;
19291;SDS011;9779;51.756;7.450;2023-08-24T10:36:06;5.60;;;2.92;;
19291;SDS011;9779;51.756;7.450;2023-08-24T10:38:34;2.33;;;2.10;;
19291;SDS011;9779;51.756;7.450;2023-08-24T10:41:01;3.85;;;2.85;;
19291;SDS011;9779;51.756;7.450;2023-08-24T10:43:29;3.47;;;2.08;;
19291;SDS011;9779;51.756;7.450;2023-08-24T10:45:55;6.13;;;2.30;;
19291;SDS011;9779;51.756;7.450;2023-08-24T10:48:28;6.00;;;1.98;;
19291;SDS011;9779;51.756;7.450;2023-08-24T10:53:39;3.10;;;2.15;;
19291;SDS011;9779;51.756;7.450;2023-08-24T10:56:15;4.00;;;2.55;;
19291;SDS011;9779;51.756;7.450;2023-08-24T10:58:42;9.57;;;2.10;;
19291;SDS011;9779;51.756;7.450;2023-08-24T11:01:19;5.70;;;1.95;;
19291;SDS011;9779;51.756;7.450;2023-08-24T11:03:50;3.55;;;1.98;;
19291;SDS011;9779;51.756;7.450;2023-08-24T11:06:23;2.60;;;1.75;;
19291;SDS011;9779;51.756;7.450;2023-08-24T11:11:41;2.85;;;2.22;;
19291;SDS011;9779;51.756;7.450;2023-08-24T11:14:20;2.22;;;1.70;;
19291;SDS011;9779;51.756;7.450;2023-08-24T11:16:51;1.80;;;1.40;;
19291;SDS011;9779;51.756;7.450;2023-08-24T11:19:17;4.30;;;1.70;;
19291;SDS011;9779;51.756;7.450;2023-08-24T11:21:43;5.00;;;1.98;;
19291;SDS011;9779;51.756;7.450;2023-08-24T11:24:12;7.25;;;1.83;;
19291;SDS011;9779;51.756;7.450;2023-08-24T11:26:47;3.83;;;1.58;;
19291;SDS011;9779;51.756;7.450;2023-08-24T11:29:14;5.03;;;1.83;;
19291;SDS011;9779;51.756;7.450;2023-08-24T11:31:43;4.88;;;1.48;;
19291;SDS011;9779;51.756;7.450;2023-08-24T11:34:09;2.58;;;1.40;;
19291;SDS011;9779;51.756;7.450;2023-08-24T11:37:09;3.65;;;2.20;;
19291;SDS011;9779;51.756;7.450;2023-08-24T11:39:27;2.15;;;1.60;;
19291;SDS011;9779;51.756;7.450;2023-08-24T11:44:28;3.28;;;2.03;;
19291;SDS011;9779;51.756;7.450;2023-08-24T11:46:57;4.75;;;1.98;;
19291;SDS011;9779;51.756;7.450;2023-08-24T11:49:23;3.58;;;1.35;;
19291;SDS011;9779;51.756;7.450;2023-08-24T11:51:50;3.35;;;2.25;;
19291;SDS011;9779;51.756;7.450;2023-08-24T11:54:18;5.45;;;1.63;;
19291;SDS011;9779;51.756;7.450;2023-08-24T11:56:44;5.57;;;2.20;;
19291;SDS011;9779;51.756;7.450;2023-08-24T11:59:12;5.03;;;1.73;;
19291;SDS011;9779;51.756;7.450;2023-08-24T12:01:39;2.05;;;1.50;;
19291;SDS011;9779;51.756;7.450;2023-08-24T12:04:06;5.00;;;1.70;;
19291;SDS011;9779;51.756;7.450;2023-08-24T12:06:32;2.25;;;1.67;;
19291;SDS011;9779;51.756;7.450;2023-08-24T12:08:58;4.50;;;1.88;;
19291;SDS011;9779;51.756;7.450;2023-08-24T12:11:24;2.42;;;1.80;;
19291;SDS011;9779;51.756;7.450;2023-08-24T12:13:52;1.77;;;1.60;;
19291;SDS011;9779;51.756;7.450;2023-08-24T12:16:19;1.92;;;1.48;;
19291;SDS011;9779;51.756;7.450;2023-08-24T12:18:50;4.80;;;1.80;;
19291;SDS011;9779;51.756;7.450;2023-08-24T12:21:23;3.33;;;1.63;;
19291;SDS011;9779;51.756;7.450;2023-08-24T12:26:21;4.22;;;1.83;;
19291;SDS011;9779;51.756;7.450;2023-08-24T12:28:50;2.65;;;1.60;;
19291;SDS011;9779;51.756;7.450;2023-08-24T12:31:19;3.95;;;1.55;;
19291;SDS011;9779;51.756;7.450;2023-08-24T12:33:58;4.03;;;1.60;;
19291;SDS011;9779;51.756;7.450;2023-08-24T12:36:33;2.03;;;1.70;;
19291;SDS011;9779;51.756;7.450;2023-08-24T12:39:01;2.35;;;1.83;;
19291;SDS011;9779;51.756;7.450;2023-08-24T12:41:29;3.63;;;1.92;;
19291;SDS011;9779;51.756;7.450;2023-08-24T12:43:55;3.53;;;1.77;;
19291;SDS011;9779;51.756;7.450;2023-08-24T12:46:21;5.25;;;1.90;;
19291;SDS011;9779;51.756;7.450;2023-08-24T12:48:46;2.05;;;1.70;;
19291;SDS011;9779;51.756;7.450;2023-08-24T12:51:12;9.02;;;1.60;;
19291;SDS011;9779;51.756;7.450;2023-08-24T12:53:38;4.80;;;1.60;;
19291;SDS011;9779;51.756;7.450;2023-08-24T12:56:03;3.80;;;1.63;;
19291;SDS011;9779;51.756;7.450;2023-08-24T12:58:29;1.65;;;1.42;;
19291;SDS011;9779;51.756;7.450;2023-08-24T13:00:56;3.72;;;2.13;;
19291;SDS011;9779;51.756;7.450;2023-08-24T13:03:24;2.45;;;1.70;;
19291;SDS011;9779;51.756;7.450;2023-08-24T13:05:49;2.28;;;1.60;;
19291;SDS011;9779;51.756;7.450;2023-08-24T13:08:15;3.65;;;1.60;;
19291;SDS011;9779;51.756;7.450;2023-08-24T13:10:40;13.85;;;2.15;;
19291;SDS011;9779;51.756;7.450;2023-08-24T13:13:07;7.15;;;2.78;;
19291;SDS011;9779;51.756;7.450;2023-08-24T13:15:33;4.90;;;2.00;;
19291;SDS011;9779;51.756;7.450;2023-08-24T13:17:58;3.63;;;1.83;;
19291;SDS011;9779;51.756;7.450;2023-08-24T13:20:24;5.57;;;1.85;;
19291;SDS011;9779;51.756;7.450;2023-08-24T13:22:53;5.03;;;1.83;;
19291;SDS011;9779;51.756;7.450;2023-08-24T13:25:18;2.67;;;2.03;;
19291;SDS011;9779;51.756;7.450;2023-08-24T13:27:44;2.95;;;1.60;;
19291;SDS011;9779;51.756;7.450;2023-08-24T13:30:10;8.10;;;2.15;;
19291;SDS011;9779;51.756;7.450;2023-08-24T13:32:37;2.25;;;1.83;;
19291;SDS011;9779;51.756;7.450;2023-08-24T13:35:04;2.53;;;1.65;;
19291;SDS011;9779;51.756;7.450;2023-08-24T13:37:30;3.95;;;2.22;;
19291;SDS011;9779;51.756;7.450;2023-08-24T13:39:55;3.67;;;1.60;;
19291;SDS011;9779;51.756;7.450;2023-08-24T13:42:23;5.20;;;1.60;;
19291;SDS011;9779;51.756;7.450;2023-08-24T13:44:48;3.83;;;2.10;;
19291;SDS011;9779;51.756;7.450;2023-08-24T13:47:14;2.50;;;1.77;;
19291;SDS011;9779;51.756;7.450;2023-08-24T13:49:40;4.30;;;1.80;;
19291;SDS011;9779;51.756;7.450;2023-08-24T13:52:05;6.70;;;1.67;;
19291;SDS011;9779;51.756;7.450;2023-08-24T13:54:31;4.00;;;1.80;;
19291;SDS011;9779;51.756;7.450;2023-08-24T13:56:57;5.95;;;1.63;;
19291;SDS011;9779;51.756;7.450;2023-08-24T13:59:25;3.72;;;1.70;;
19291;SDS011;9779;51.756;7.450;2023-08-24T14:01:51;4.30;;;1.92;;
19291;SDS011;9779;51.756;7.450;2023-08-24T14:04:16;4.20;;;1.75;;
19291;SDS011;9779;51.756;7.450;2023-08-24T14:06:42;4.80;;;1.58;;
19291;SDS011;9779;51.756;7.450;2023-08-24T14:09:07;4.25;;;1.75;;
19291;SDS011;9779;51.756;7.450;2023-08-24T14:11:33;4.47;;;1.58;;
19291;SDS011;9779;51.756;7.450;2023-08-24T14:13:59;6.55;;;1.83;;
19291;SDS011;9779;51.756;7.450;2023-08-24T14:16:25;4.03;;;1.63;;
19291;SDS011;9779;51.756;7.450;2023-08-24T14:18:51;6.30;;;2.15;;
19291;SDS011;9779;51.756;7.450;2023-08-24T14:21:17;1.77;;;1.45;;
19291;SDS011;9779;51.756;7.450;2023-08-24T14:23:45;3.97;;;1.52;;
19291;SDS011;9779;51.756;7.450;2023-08-24T14:26:11;3.90;;;1.50;;
19291;SDS011;9779;51.756;7.450;2023-08-24T14:28:53;3.70;;;1.65;;
19291;SDS011;9779;51.756;7.450;2023-08-24T14:31:24;2.58;;;1.40;;
19291;SDS011;9779;51.756;7.450;2023-08-24T14:33:51;1.70;;;1.48;;
19291;SDS011;9779;51.756;7.450;2023-08-24T14:36:18;2.90;;;1.40;;
19291;SDS011;9779;51.756;7.450;2023-08-24T14:38:45;7.45;;;1.77;;
19291;SDS011;9779;51.756;7.450;2023-08-24T14:41:12;4.55;;;1.58;;
19291;SDS011;9779;51.756;7.450;2023-08-24T14:43:38;2.28;;;1.40;;
19291;SDS011;9779;51.756;7.450;2023-08-24T14:46:05;5.47;;;1.77;;
19291;SDS011;9779;51.756;7.450;2023-08-24T14:48:31;6.47;;;1.67;;
19291;SDS011;9779;51.756;7.450;2023-08-24T14:50:57;6.40;;;1.70;;
19291;SDS011;9779;51.756;7.450;2023-08-24T14:53:26;2.58;;;1.50;;
19291;SDS011;9779;51.756;7.450;2023-08-24T14:55:53;5.15;;;1.50;;
19291;SDS011;9779;51.756;7.450;2023-08-24T14:58:20;6.15;;;1.77;;
19291;SDS011;9779;51.756;7.450;2023-08-24T15:00:46;4.95;;;1.80;;
19291;SDS011;9779;51.756;7.450;2023-08-24T15:03:15;5.82;;;1.58;;
19291;SDS011;9779;51.756;7.450;2023-08-24T15:05:42;6.72;;;2.15;;
19291;SDS011;9779;51.756;7.450;2023-08-24T15:08:09;4.75;;;1.98;;
19291;SDS011;9779;51.756;7.450;2023-08-24T15:10:36;4.55;;;1.70;;
19291;SDS011;9779;51.756;7.450;2023-08-24T15:13:02;3.83;;;1.90;;
19291;SDS011;9779;51.756;7.450;2023-08-24T15:15:28;5.10;;;1.98;;